createdAt,value
2022-12-08T00:00:55.131Z,5.63
2022-12-08T00:03:22.141Z,7.40
2022-12-08T00:06:19.155Z,6.90
2022-12-08T00:09:04.762Z,5.70
2022-12-08T00:11:31.900Z,7.27
2022-12-08T00:13:58.768Z,6.53
2022-12-08T00:16:25.653Z,7.13
2022-12-08T00:18:52.522Z,6.67
2022-12-08T00:21:19.360Z,9.17
2022-12-08T00:23:46.158Z,7.77
2022-12-08T00:26:12.930Z,7.97
2022-12-08T00:28:39.851Z,10.67
2022-12-08T00:31:12.871Z,9.00
2022-12-08T00:33:39.777Z,8.17
2022-12-08T00:36:12.279Z,7.60
2022-12-08T00:38:44.645Z,4.47
2022-12-08T00:41:15.189Z,9.57
2022-12-08T00:43:42.565Z,5.70
2022-12-08T00:46:09.518Z,7.50
2022-12-08T00:48:36.836Z,5.33
2022-12-08T00:51:03.898Z,6.53
2022-12-08T00:53:31.793Z,5.70
2022-12-08T00:55:58.634Z,6.63
2022-12-08T00:58:25.450Z,4.63
2022-12-08T01:00:52.306Z,6.23
2022-12-08T01:03:19.149Z,5.50
2022-12-08T01:05:45.980Z,7.10
2022-12-08T01:08:12.836Z,6.97
2022-12-08T01:10:39.761Z,6.27
2022-12-08T01:13:06.682Z,6.93
2022-12-08T01:15:33.458Z,7.73
2022-12-08T01:18:00.258Z,5.57
2022-12-08T01:20:27.918Z,7.20
2022-12-08T01:22:54.692Z,8.03
2022-12-08T01:25:21.499Z,7.03
2022-12-08T01:27:48.443Z,8.53
2022-12-08T01:30:15.331Z,7.43
2022-12-08T01:32:42.159Z,6.40
2022-12-08T01:35:09.254Z,6.43
2022-12-08T01:37:36.226Z,7.17
2022-12-08T01:40:03.819Z,7.17
2022-12-08T01:42:32.399Z,10.23
2022-12-08T01:45:02.942Z,12.63
2022-12-08T01:47:41.641Z,7.03
2022-12-08T01:50:11.477Z,8.33
2022-12-08T01:52:42.326Z,7.47
2022-12-08T01:55:16.537Z,10.27
2022-12-08T01:57:49.318Z,10.53
2022-12-08T02:00:18.892Z,9.93
2022-12-08T02:03:02.092Z,8.73
2022-12-08T02:05:33.277Z,9.27
2022-12-08T02:08:06.677Z,9.67
2022-12-08T02:10:36.380Z,9.53
2022-12-08T02:13:05.209Z,8.07
2022-12-08T02:15:59.423Z,9.73
2022-12-08T02:19:14.831Z,11.03
2022-12-08T02:21:46.873Z,10.33
2022-12-08T02:24:41.081Z,10.10
2022-12-08T02:27:45.339Z,9.90
2022-12-08T02:30:21.523Z,9.43
2022-12-08T02:33:09.974Z,10.80
2022-12-08T02:35:54.151Z,9.13
2022-12-08T02:38:37.208Z,8.27
2022-12-08T02:41:22.239Z,9.57
2022-12-08T02:43:57.686Z,9.53
2022-12-08T02:46:30.928Z,9.87
2022-12-08T02:48:59.182Z,10.43
2022-12-08T02:51:26.245Z,9.37
2022-12-08T02:53:53.371Z,8.73
2022-12-08T02:56:40.498Z,9.60
2022-12-08T02:59:11.514Z,9.83
2022-12-08T03:01:57.562Z,9.60
2022-12-08T03:04:49.355Z,7.77
2022-12-08T03:07:47.670Z,8.70
2022-12-08T03:10:46.946Z,9.47
2022-12-08T03:13:18.380Z,10.13
2022-12-08T03:15:48.440Z,7.90
2022-12-08T03:18:17.426Z,7.37
2022-12-08T03:20:46.003Z,9.07
2022-12-08T03:23:14.762Z,10.00
2022-12-08T03:25:48.674Z,10.87
2022-12-08T03:28:15.954Z,8.73
2022-12-08T03:30:47.799Z,9.70
2022-12-08T03:33:26.864Z,11.60
2022-12-08T03:35:54.749Z,10.90
2022-12-08T03:38:22.410Z,10.17
2022-12-08T03:41:09.203Z,11.60
2022-12-08T03:43:36.270Z,10.03
2022-12-08T03:46:03.183Z,17.10
2022-12-08T03:48:30.139Z,11.40
2022-12-08T03:50:57.052Z,13.40
2022-12-08T03:53:24.666Z,13.57
2022-12-08T03:55:53.453Z,15.70
2022-12-08T03:58:20.373Z,19.10
2022-12-08T04:00:47.241Z,15.27
2022-12-08T04:03:14.146Z,14.57
2022-12-08T04:05:41.017Z,16.07
2022-12-08T04:08:07.927Z,18.37
2022-12-08T04:10:34.726Z,15.77
2022-12-08T04:13:01.542Z,19.07
2022-12-08T04:15:28.333Z,18.70
2022-12-08T04:17:55.157Z,17.53
2022-12-08T04:20:22.043Z,19.03
2022-12-08T04:22:48.853Z,19.33
2022-12-08T04:25:16.011Z,22.43
2022-12-08T04:27:43.118Z,20.20
2022-12-08T04:30:10.493Z,18.57
2022-12-08T04:32:37.283Z,20.80
2022-12-08T04:35:04.343Z,20.63
2022-12-08T04:37:31.175Z,23.97
2022-12-08T04:39:57.975Z,19.87
2022-12-08T04:42:24.802Z,21.00
2022-12-08T04:44:51.592Z,19.40
2022-12-08T04:47:18.565Z,21.60
2022-12-08T04:49:45.427Z,21.23
2022-12-08T04:52:12.248Z,18.50
2022-12-08T04:54:39.063Z,19.57
2022-12-08T04:57:05.916Z,21.90
2022-12-08T04:59:32.793Z,20.50
2022-12-08T05:01:59.807Z,24.27
2022-12-08T05:04:26.827Z,27.93
2022-12-08T05:06:53.767Z,18.30
2022-12-08T05:09:20.599Z,21.37
2022-12-08T05:11:49.240Z,21.33
2022-12-08T05:14:17.936Z,19.47
2022-12-08T05:16:46.412Z,22.63
2022-12-08T05:19:14.245Z,19.70
2022-12-08T05:21:41.674Z,19.23
2022-12-08T05:24:09.119Z,20.63
2022-12-08T05:26:36.091Z,21.80
2022-12-08T05:29:03.024Z,23.97
2022-12-08T05:31:30.161Z,19.57
2022-12-08T05:34:02.423Z,26.10
2022-12-08T05:36:30.108Z,22.67
2022-12-08T05:38:57.949Z,22.07
2022-12-08T05:41:25.106Z,21.70
2022-12-08T05:43:52.063Z,22.70
2022-12-08T05:46:19.302Z,21.13
2022-12-08T05:48:46.243Z,20.73
2022-12-08T05:51:22.339Z,21.33
2022-12-08T05:53:50.298Z,20.63
2022-12-08T05:56:17.938Z,20.53
2022-12-08T05:58:44.855Z,24.57
2022-12-08T06:01:25.530Z,21.40
2022-12-08T06:03:53.182Z,26.37
2022-12-08T06:06:20.624Z,24.77
2022-12-08T06:08:47.573Z,22.90
2022-12-08T06:11:22.990Z,24.53
2022-12-08T06:13:50.641Z,24.00
2022-12-08T06:16:18.413Z,23.90
2022-12-08T06:18:45.700Z,21.73
2022-12-08T06:21:14.124Z,21.20
2022-12-08T06:23:41.608Z,25.17
2022-12-08T06:26:13.497Z,21.63
2022-12-08T06:28:41.955Z,23.53
2022-12-08T06:31:11.600Z,25.63
2022-12-08T06:33:38.672Z,20.93
2022-12-08T06:36:06.412Z,25.27
2022-12-08T06:38:34.142Z,22.53
2022-12-08T06:41:01.143Z,19.10
2022-12-08T06:43:28.345Z,25.60
2022-12-08T06:45:55.443Z,24.53
2022-12-08T06:48:22.710Z,21.53
2022-12-08T06:50:49.603Z,24.43
2022-12-08T06:53:18.200Z,23.20
2022-12-08T06:56:02.057Z,22.57
2022-12-08T06:58:29.110Z,22.77
2022-12-08T07:00:56.032Z,22.77
2022-12-08T07:03:22.951Z,20.70
2022-12-08T07:05:49.761Z,20.40
2022-12-08T07:08:17.012Z,22.57
2022-12-08T07:10:43.905Z,23.60
2022-12-08T07:13:10.811Z,22.00
2022-12-08T07:15:37.690Z,27.30
2022-12-08T07:18:04.450Z,28.20
2022-12-08T07:20:31.291Z,24.30
2022-12-08T07:22:58.113Z,27.13
2022-12-08T07:25:25.223Z,23.20
2022-12-08T07:27:52.684Z,23.83
2022-12-08T07:30:19.835Z,23.40
2022-12-08T07:32:47.163Z,24.80
2022-12-08T07:35:14.258Z,24.50
2022-12-08T07:37:41.078Z,24.40
2022-12-08T07:40:08.922Z,22.07
2022-12-08T07:42:36.301Z,22.07
2022-12-08T07:45:04.467Z,23.20
2022-12-08T07:47:31.330Z,23.87
2022-12-08T07:49:58.157Z,20.17
2022-12-08T07:52:25.123Z,26.17
2022-12-08T07:54:51.912Z,29.57
2022-12-08T07:57:18.825Z,21.70
2022-12-08T07:59:45.665Z,23.37
2022-12-08T08:02:24.687Z,20.43
2022-12-08T08:04:52.406Z,23.80
2022-12-08T08:07:19.339Z,22.30
2022-12-08T08:09:46.186Z,23.57
2022-12-08T08:15:01.129Z,23.60
2022-12-08T08:17:29.538Z,26.63
2022-12-08T08:19:56.754Z,23.40
2022-12-08T08:22:25.033Z,26.03
2022-12-08T08:24:52.123Z,24.70
2022-12-08T08:27:19.528Z,21.20
2022-12-08T08:29:46.385Z,23.63
2022-12-08T08:32:13.254Z,25.37
2022-12-08T08:34:40.135Z,23.53
2022-12-08T08:37:06.971Z,26.20
2022-12-08T08:39:33.805Z,28.30
2022-12-08T08:42:00.931Z,26.30
2022-12-08T08:44:27.898Z,21.07
2022-12-08T08:46:54.879Z,26.33
2022-12-08T08:49:21.761Z,21.43
2022-12-08T08:51:48.673Z,22.77
2022-12-08T08:54:15.872Z,28.37
2022-12-08T08:56:42.699Z,31.97
2022-12-08T08:59:10.814Z,26.20
2022-12-08T09:01:37.843Z,25.73
2022-12-08T09:04:04.870Z,20.33
2022-12-08T09:06:32.472Z,26.00
2022-12-08T09:08:59.399Z,25.10
2022-12-08T09:11:26.350Z,25.77
2022-12-08T09:13:54.351Z,28.37
2022-12-08T09:16:21.791Z,23.93
2022-12-08T09:18:49.565Z,20.10
2022-12-08T09:21:25.964Z,24.03
2022-12-08T09:23:58.310Z,27.63
2022-12-08T09:26:27.186Z,22.73
2022-12-08T09:28:55.950Z,28.17
2022-12-08T09:31:24.351Z,28.23
2022-12-08T09:33:51.739Z,23.03
2022-12-08T09:36:18.919Z,22.17
2022-12-08T09:38:46.660Z,25.93
2022-12-08T09:41:38.918Z,24.67
2022-12-08T09:44:29.710Z,26.60
2022-12-08T09:46:58.631Z,23.87
2022-12-08T09:49:38.676Z,21.10
2022-12-08T09:52:12.612Z,24.27
2022-12-08T09:54:39.801Z,23.30
2022-12-08T09:57:13.194Z,22.40
2022-12-08T09:59:42.655Z,22.43
2022-12-08T10:02:24.724Z,23.17
2022-12-08T10:04:54.880Z,23.47
2022-12-08T10:08:01.831Z,25.03
2022-12-08T10:10:55.802Z,24.07
2022-12-08T10:13:40.989Z,25.17
2022-12-08T10:16:33.432Z,20.97
2022-12-08T10:19:21.457Z,22.33
2022-12-08T10:21:49.006Z,21.63
2022-12-08T10:24:30.714Z,25.50
2022-12-08T10:26:57.930Z,37.03
2022-12-08T10:29:24.846Z,25.10
2022-12-08T10:31:51.889Z,25.50
2022-12-08T10:34:23.130Z,25.60
2022-12-08T10:36:58.187Z,23.13
2022-12-08T10:39:43.788Z,22.20
2022-12-08T10:42:22.074Z,22.93
2022-12-08T10:44:57.631Z,20.97
2022-12-08T10:47:27.038Z,28.10
2022-12-08T10:50:22.004Z,24.40
2022-12-08T10:52:56.759Z,23.10
2022-12-08T10:55:24.407Z,21.70
2022-12-08T10:57:51.360Z,22.57
2022-12-08T11:00:23.380Z,21.80
2022-12-08T11:02:56.744Z,24.40
2022-12-08T11:05:32.391Z,21.53
2022-12-08T11:08:00.002Z,22.23
2022-12-08T11:10:33.872Z,25.77
2022-12-08T11:13:03.597Z,20.77
2022-12-08T11:15:37.460Z,23.87
2022-12-08T11:18:20.378Z,20.37
2022-12-08T11:20:47.152Z,19.77
2022-12-08T11:23:23.952Z,25.03
2022-12-08T11:25:52.720Z,25.17
2022-12-08T11:28:23.617Z,22.40
2022-12-08T11:30:57.736Z,21.37
2022-12-08T11:33:28.480Z,23.17
2022-12-08T11:36:05.600Z,23.73
2022-12-08T11:38:33.967Z,22.07
2022-12-08T11:41:12.290Z,21.13
2022-12-08T11:44:20.526Z,22.40
2022-12-08T11:47:13.128Z,21.87
2022-12-08T11:49:41.993Z,19.00
2022-12-08T11:52:33.853Z,19.83
2022-12-08T11:55:33.747Z,22.13
2022-12-08T11:58:19.316Z,17.77
2022-12-08T12:00:46.340Z,16.27
2022-12-08T12:03:38.921Z,15.43
2022-12-08T12:06:38.323Z,18.97
2022-12-08T12:09:11.545Z,23.83
2022-12-08T12:12:15.893Z,14.77
2022-12-08T12:14:57.546Z,14.17
2022-12-08T12:17:43.545Z,17.93
2022-12-08T12:20:39.278Z,20.97
2022-12-08T12:23:20.645Z,14.93
2022-12-08T12:25:55.551Z,15.37
2022-12-08T12:28:27.951Z,17.67
2022-12-08T12:31:11.975Z,14.27
2022-12-08T12:33:39.095Z,15.20
2022-12-08T12:36:09.281Z,15.63
2022-12-08T12:39:03.239Z,16.43
2022-12-08T12:41:55.685Z,19.67
2022-12-08T12:44:36.704Z,20.60
2022-12-08T12:47:08.479Z,18.77
2022-12-08T12:49:41.044Z,18.87
2022-12-08T12:52:17.024Z,18.03
2022-12-08T12:55:04.772Z,17.33
2022-12-08T12:57:39.860Z,23.60
2022-12-08T13:00:19.485Z,19.97
2022-12-08T13:02:50.862Z,21.67
2022-12-08T13:05:28.834Z,20.87
2022-12-08T13:07:57.704Z,19.77
2022-12-08T13:10:48.529Z,18.40
2022-12-08T13:13:18.868Z,17.90
2022-12-08T13:15:55.503Z,18.83
2022-12-08T13:18:31.577Z,20.40
2022-12-08T13:21:09.380Z,21.43
2022-12-08T13:24:14.451Z,21.57
2022-12-08T13:26:44.489Z,20.63
2022-12-08T13:29:26.467Z,22.47
2022-12-08T13:32:00.331Z,19.87
2022-12-08T13:34:57.821Z,20.43
2022-12-08T13:37:53.839Z,22.80
2022-12-08T13:40:27.348Z,24.10
2022-12-08T13:43:10.550Z,22.57
2022-12-08T13:46:31.778Z,22.63
2022-12-08T13:57:32.769Z,21.67
2022-12-08T14:00:05.809Z,21.60
2022-12-08T14:02:51.401Z,22.03
2022-12-08T14:05:34.652Z,21.80
2022-12-08T14:08:57.883Z,20.40
2022-12-08T14:11:35.023Z,18.83
2022-12-08T14:14:06.008Z,21.60
2022-12-08T14:16:43.206Z,21.97
2022-12-08T14:19:23.637Z,18.63
2022-12-08T14:22:23.143Z,20.70
2022-12-08T14:24:54.285Z,18.70
2022-12-08T14:27:26.840Z,21.80
2022-12-08T14:29:56.842Z,21.53
2022-12-08T14:32:37.597Z,20.87
2022-12-08T14:35:07.503Z,20.83
2022-12-08T14:37:38.037Z,21.43
2022-12-08T14:40:22.955Z,21.50
2022-12-08T14:43:05.830Z,19.80
2022-12-08T14:45:35.961Z,22.13
2022-12-08T14:48:23.375Z,19.23
2022-12-08T14:51:21.429Z,22.57
2022-12-08T14:54:01.461Z,16.07
2022-12-08T14:56:32.731Z,16.33
2022-12-08T14:59:23.032Z,10.17
2022-12-08T15:01:52.458Z,8.20
2022-12-08T15:04:25.452Z,6.97
2022-12-08T15:07:10.541Z,6.43
2022-12-08T15:09:41.099Z,5.70
2022-12-08T15:12:14.209Z,6.30
2022-12-08T15:14:57.639Z,9.43
2022-12-08T15:17:27.423Z,7.07
2022-12-08T15:19:59.231Z,6.17
2022-12-08T15:22:28.967Z,6.67
2022-12-08T15:24:56.543Z,6.57
2022-12-08T15:27:25.096Z,7.00
2022-12-08T15:29:52.392Z,12.17
2022-12-08T15:32:21.684Z,5.33
2022-12-08T15:34:48.931Z,7.63
2022-12-08T15:37:24.668Z,7.57
2022-12-08T15:39:51.548Z,7.27
2022-12-08T15:42:18.649Z,11.80
2022-12-08T15:44:45.638Z,13.07
2022-12-08T15:47:21.244Z,10.23
2022-12-08T15:49:49.626Z,7.57
2022-12-08T15:52:22.097Z,9.23
2022-12-08T15:54:49.324Z,10.00
2022-12-08T16:00:51.212Z,10.80
2022-12-08T16:04:09.337Z,10.67
2022-12-08T16:09:18.113Z,9.70
2022-12-08T16:12:07.163Z,12.17
2022-12-08T16:17:21.950Z,11.30
2022-12-08T16:19:49.569Z,10.30
2022-12-08T16:22:56.836Z,12.20
2022-12-08T16:25:19.740Z,9.93
2022-12-08T16:28:01.395Z,15.80
2022-12-08T16:30:33.098Z,18.97
2022-12-08T16:32:59.900Z,11.27
2022-12-08T16:35:26.761Z,12.00
2022-12-08T16:37:53.954Z,12.63
2022-12-08T16:40:21.001Z,13.73
2022-12-08T16:42:50.271Z,16.07
2022-12-08T16:45:30.502Z,14.53
2022-12-08T16:48:01.008Z,14.93
2022-12-08T16:50:29.248Z,15.93
2022-12-08T16:53:01.782Z,16.63
2022-12-08T16:55:28.875Z,19.27
2022-12-08T16:57:56.121Z,15.03
2022-12-08T17:00:28.136Z,14.57
2022-12-08T17:02:55.533Z,15.73
2022-12-08T17:05:24.082Z,14.80
2022-12-08T17:07:52.873Z,14.70
2022-12-08T17:10:22.970Z,16.23
2022-12-08T17:12:50.330Z,15.07
2022-12-08T17:15:20.243Z,17.97
2022-12-08T17:17:47.312Z,17.33
2022-12-08T17:20:23.764Z,19.47
2022-12-08T17:22:53.469Z,17.17
2022-12-08T17:25:20.298Z,19.13
2022-12-08T17:27:47.066Z,19.33
2022-12-08T17:30:15.798Z,15.80
2022-12-08T17:32:43.071Z,17.73
2022-12-08T17:35:10.512Z,19.63
2022-12-08T17:37:37.426Z,18.90
2022-12-08T17:40:05.263Z,18.20
2022-12-08T17:42:32.265Z,17.73
2022-12-08T17:44:59.222Z,16.90
2022-12-08T17:47:26.104Z,17.17
2022-12-08T17:49:52.980Z,17.30
2022-12-08T17:52:20.030Z,15.83
2022-12-08T17:54:46.888Z,14.80
2022-12-08T17:57:13.665Z,16.03
2022-12-08T17:59:40.512Z,17.43
2022-12-08T18:02:11.897Z,17.13
2022-12-08T18:04:38.769Z,16.27
2022-12-08T18:07:05.657Z,15.77
2022-12-08T18:09:33.671Z,16.13
2022-12-08T18:12:00.740Z,17.83
2022-12-08T18:14:27.714Z,21.03
2022-12-08T18:16:54.684Z,16.50
2022-12-08T18:19:21.651Z,18.93
2022-12-08T18:21:48.518Z,18.17
2022-12-08T18:24:20.253Z,20.83
2022-12-08T18:26:47.931Z,24.50
2022-12-08T18:29:14.834Z,26.27
2022-12-08T18:31:41.702Z,29.27
2022-12-08T18:34:08.519Z,21.90
2022-12-08T18:36:35.398Z,23.13
2022-12-08T18:39:07.227Z,16.97
2022-12-08T18:41:37.215Z,21.23
2022-12-08T18:44:04.192Z,25.70
2022-12-08T18:46:31.056Z,25.77
2022-12-08T18:48:59.330Z,29.13
2022-12-08T18:51:26.127Z,33.30
2022-12-08T18:53:53.354Z,32.50
2022-12-08T18:56:22.160Z,59.20
2022-12-08T18:58:49.176Z,35.93
2022-12-08T19:01:16.534Z,30.20
2022-12-08T19:04:04.660Z,28.13
2022-12-08T19:06:30.454Z,27.03
2022-12-08T19:08:57.766Z,23.77
2022-12-08T19:11:27.834Z,21.93
2022-12-08T19:13:55.638Z,21.90
2022-12-08T19:16:23.049Z,20.03
2022-12-08T19:18:50.037Z,19.77
2022-12-08T19:21:16.838Z,22.53
2022-12-08T19:23:43.625Z,36.23
2022-12-08T19:26:11.450Z,27.20
2022-12-08T19:28:39.973Z,22.07
2022-12-08T19:31:08.168Z,22.53
2022-12-08T19:33:35.117Z,24.93
2022-12-08T19:36:07.424Z,28.33
2022-12-08T19:38:54.921Z,24.63
2022-12-08T19:41:40.803Z,25.17
2022-12-08T19:44:28.940Z,24.10
2022-12-08T19:46:55.881Z,26.20
2022-12-08T19:49:22.834Z,35.67
2022-12-08T19:51:49.673Z,26.97
2022-12-08T19:54:16.489Z,30.13
2022-12-08T19:56:43.281Z,27.10
2022-12-08T19:59:10.150Z,24.97
2022-12-08T20:01:38.582Z,27.10
2022-12-08T20:04:05.904Z,25.13
2022-12-08T20:06:32.725Z,26.27
2022-12-08T20:09:00.474Z,42.83
2022-12-08T20:11:27.310Z,33.60
2022-12-08T20:13:54.149Z,32.03
2022-12-08T20:16:21.157Z,34.30
2022-12-08T20:18:48.671Z,67.40
2022-12-08T20:21:15.858Z,49.07
2022-12-08T20:23:42.785Z,36.33
2022-12-08T20:26:12.400Z,26.57
2022-12-08T20:28:39.589Z,35.53
2022-12-08T20:31:06.483Z,38.57
2022-12-08T20:33:33.471Z,29.43
2022-12-08T20:36:02.726Z,23.80
2022-12-08T20:38:30.375Z,24.83
2022-12-08T20:40:58.662Z,24.33
2022-12-08T20:43:25.974Z,25.17
2022-12-08T20:45:52.816Z,28.37
2022-12-08T20:48:19.646Z,28.20
2022-12-08T20:50:46.651Z,23.87
2022-12-08T20:53:13.509Z,21.83
2022-12-08T20:55:42.651Z,23.33
2022-12-08T20:58:09.607Z,21.70
2022-12-08T21:00:37.577Z,23.93
2022-12-08T21:03:04.654Z,23.37
2022-12-08T21:05:31.919Z,27.53
2022-12-08T21:07:58.961Z,22.57
2022-12-08T21:10:25.984Z,22.17
2022-12-08T21:12:52.926Z,23.13
2022-12-08T21:15:20.124Z,22.30
2022-12-08T21:17:47.079Z,24.07
2022-12-08T21:20:14.543Z,26.67
2022-12-08T21:22:41.401Z,26.97
2022-12-08T21:25:08.632Z,25.03
2022-12-08T21:27:37.780Z,30.00
2022-12-08T21:30:06.424Z,25.70
2022-12-08T21:32:33.789Z,27.63
2022-12-08T21:35:00.638Z,29.57
2022-12-08T21:37:27.455Z,27.17
2022-12-08T21:39:54.390Z,25.57
2022-12-08T21:42:39.751Z,25.43
2022-12-08T21:45:07.087Z,27.27
2022-12-08T21:47:34.097Z,25.07
2022-12-08T21:50:00.966Z,32.07
2022-12-08T21:52:27.929Z,58.07
2022-12-08T21:54:54.862Z,40.07
2022-12-08T21:57:21.862Z,28.67
2022-12-08T21:59:48.790Z,28.27
2022-12-08T22:02:20.808Z,28.30
2022-12-08T22:04:49.895Z,29.80
2022-12-08T22:07:17.179Z,26.23
2022-12-08T22:09:44.295Z,59.90
2022-12-08T22:12:14.915Z,34.60
2022-12-08T22:14:41.875Z,34.37
2022-12-08T22:17:09.454Z,29.10
2022-12-08T22:19:36.486Z,33.53
2022-12-08T22:22:03.565Z,54.67
2022-12-08T22:24:31.434Z,56.80
2022-12-08T22:26:58.333Z,118.50
2022-12-08T22:29:25.333Z,108.03
2022-12-08T22:31:52.349Z,70.03
2022-12-08T22:34:19.172Z,30.80
2022-12-08T22:36:46.045Z,25.87
2022-12-08T22:39:12.831Z,30.10
2022-12-08T22:41:39.590Z,30.43
2022-12-08T22:44:06.997Z,27.93
2022-12-08T22:46:34.223Z,42.63
2022-12-08T22:49:01.172Z,40.87
2022-12-08T22:51:28.185Z,30.13
2022-12-08T22:53:55.051Z,30.53
2022-12-08T22:56:21.958Z,23.80
2022-12-08T22:58:48.773Z,30.27
2022-12-08T23:01:22.271Z,28.40
2022-12-08T23:03:49.398Z,28.43
2022-12-08T23:06:16.640Z,27.27
2022-12-08T23:08:44.549Z,28.90
2022-12-08T23:11:12.174Z,25.43
2022-12-08T23:13:39.840Z,24.43
2022-12-08T23:16:11.678Z,25.63
2022-12-08T23:18:41.686Z,26.03
2022-12-08T23:21:12.607Z,27.60
2022-12-08T23:23:39.722Z,28.73
2022-12-08T23:26:20.460Z,25.57
2022-12-08T23:28:47.560Z,26.63
2022-12-08T23:31:15.009Z,24.43
2022-12-08T23:33:42.723Z,28.83
2022-12-08T23:36:10.565Z,27.43
2022-12-08T23:38:38.016Z,25.97
2022-12-08T23:41:07.286Z,26.70
2022-12-08T23:43:34.575Z,23.07
2022-12-08T23:46:01.581Z,28.23
2022-12-08T23:48:29.163Z,28.43
2022-12-08T23:50:57.118Z,28.83
2022-12-08T23:53:24.074Z,27.07
2022-12-08T23:55:57.712Z,29.57
2022-12-08T23:58:24.550Z,29.80
